CheckWX is a tool to help pilots better visualize weather data.  It is not intended as a substitute for an official pre-flight weather briefing.

20:52:55 UTC

KSSC METAR
Shaw AFB Airport
Sumter, South Carolina, USA
Current

57 mins ago

KSSC 201956Z AUTO 24017G22KT 10SM BKN038 BKN049 15/05 A2979 RMK AO2 PK WND 22027/08 SLP089 T01470052 $
Observed
Apr-20 @ 19:56 UTC
Wind
  • 240° at 17 KTS
  • Gusting to 22 KTS
Visibility
10 SM
Flight Rules
VFR
Cloud Levels
  • Broken at 3,800' AGL
  • Broken at 4,900' AGL
Temperature
15°C / 59°F
Dewpoint
C / 41°F
Humidity
51%
Altimeter
29.79" Hg
Pressure
1008.82 hPa
Previous

2 hours ago

KSSC 201856Z AUTO 22021G26KT 10SM FEW039 BKN047 OVC065 14/06 A2979 RMK AO2 PK WND 23027/48 RAB15E47 SLP089 P0000 T01350061 $
Observed
Apr-20 @ 18:56 UTC
Wind
  • 220° at 21 KTS
  • Gusting to 26 KTS
Visibility
10 SM
Flight Rules
VFR
Cloud Levels
  • Few at 3,900' AGL
  • Broken at 4,700' AGL
  • Overcast at 6,500' AGL
Temperature
14°C / 57°F
Dewpoint
C / 43°F
Humidity
59%
Altimeter
29.79" Hg
Pressure
1008.82 hPa
Current Rain
0.01"
Previous

3 hours ago

KSSC 201815Z AUTO 22018G22KT 10SM -RA SCT039 BKN048 OVC060 14/06 A2978 RMK AO2 RAB15 SLP086 $
Observed
Apr-20 @ 18:15 UTC
Wind
  • 220° at 18 KTS
  • Gusting to 22 KTS
Visibility
10 SM
Flight Rules
VFR
Conditions
Light Rain
Cloud Levels
  • Scattered at 3,900' AGL
  • Broken at 4,800' AGL
  • Overcast at 6,000' AGL
Temperature
14°C / 57°F
Dewpoint
C / 43°F
Humidity
59%
Altimeter
29.78" Hg
Pressure
1008.42 hPa